sensor_id;sensor_type;location;lat;lon;timestamp;P1;durP1;ratioP1;P2;durP2;ratioP2
37847;SDS011;23688;33.130;-117.188;2022-07-12T00:02:17;12.02;;;5.70;;
37847;SDS011;23688;33.130;-117.188;2022-07-12T00:04:44;13.43;;;4.68;;
37847;SDS011;23688;33.130;-117.188;2022-07-12T00:07:10;13.30;;;5.05;;
37847;SDS011;23688;33.130;-117.188;2022-07-12T00:09:36;11.02;;;4.85;;
37847;SDS011;23688;33.130;-117.188;2022-07-12T00:12:03;20.25;;;5.88;;
37847;SDS011;23688;33.130;-117.188;2022-07-12T00:14:29;13.27;;;5.20;;
37847;SDS011;23688;33.130;-117.188;2022-07-12T00:16:56;15.50;;;5.43;;
37847;SDS011;23688;33.130;-117.188;2022-07-12T00:19:22;10.75;;;5.50;;
37847;SDS011;23688;33.130;-117.188;2022-07-12T00:21:49;10.15;;;5.22;;
37847;SDS011;23688;33.130;-117.188;2022-07-12T00:24:15;14.65;;;5.68;;
37847;SDS011;23688;33.130;-117.188;2022-07-12T00:26:41;13.82;;;5.55;;
37847;SDS011;23688;33.130;-117.188;2022-07-12T00:29:07;12.23;;;5.72;;
37847;SDS011;23688;33.130;-117.188;2022-07-12T00:31:34;14.93;;;5.85;;
37847;SDS011;23688;33.130;-117.188;2022-07-12T00:34:00;18.23;;;5.80;;
37847;SDS011;23688;33.130;-117.188;2022-07-12T00:36:26;13.35;;;4.63;;
37847;SDS011;23688;33.130;-117.188;2022-07-12T00:41:22;14.13;;;5.28;;
37847;SDS011;23688;33.130;-117.188;2022-07-12T00:43:48;10.90;;;5.50;;
37847;SDS011;23688;33.130;-117.188;2022-07-12T00:46:15;12.20;;;5.45;;
37847;SDS011;23688;33.130;-117.188;2022-07-12T00:48:46;15.05;;;5.40;;
37847;SDS011;23688;33.130;-117.188;2022-07-12T00:51:12;10.35;;;5.28;;
37847;SDS011;23688;33.130;-117.188;2022-07-12T00:53:39;10.20;;;5.43;;
37847;SDS011;23688;33.130;-117.188;2022-07-12T00:56:05;9.52;;;5.45;;
37847;SDS011;23688;33.130;-117.188;2022-07-12T00:58:32;11.38;;;5.35;;
37847;SDS011;23688;33.130;-117.188;2022-07-12T01:00:58;14.40;;;5.93;;
37847;SDS011;23688;33.130;-117.188;2022-07-12T01:03:25;17.55;;;5.85;;
37847;SDS011;23688;33.130;-117.188;2022-07-12T01:05:53;10.93;;;5.50;;
37847;SDS011;23688;33.130;-117.188;2022-07-12T01:08:19;11.95;;;6.45;;
37847;SDS011;23688;33.130;-117.188;2022-07-12T01:10:47;20.15;;;6.85;;
37847;SDS011;23688;33.130;-117.188;2022-07-12T01:13:15;13.68;;;5.43;;
37847;SDS011;23688;33.130;-117.188;2022-07-12T01:15:42;17.08;;;5.90;;
37847;SDS011;23688;33.130;-117.188;2022-07-12T01:18:09;9.40;;;5.25;;
37847;SDS011;23688;33.130;-117.188;2022-07-12T01:20:36;15.48;;;6.07;;
37847;SDS011;23688;33.130;-117.188;2022-07-12T01:23:04;10.93;;;5.22;;
37847;SDS011;23688;33.130;-117.188;2022-07-12T01:25:30;15.57;;;6.00;;
37847;SDS011;23688;33.130;-117.188;2022-07-12T01:27:57;11.25;;;5.22;;
37847;SDS011;23688;33.130;-117.188;2022-07-12T01:30:23;16.10;;;5.40;;
37847;SDS011;23688;33.130;-117.188;2022-07-12T01:32:50;13.07;;;5.35;;
37847;SDS011;23688;33.130;-117.188;2022-07-12T01:35:17;15.95;;;5.95;;
37847;SDS011;23688;33.130;-117.188;2022-07-12T01:37:44;12.33;;;5.27;;
37847;SDS011;23688;33.130;-117.188;2022-07-12T01:40:13;10.95;;;4.93;;
37847;SDS011;23688;33.130;-117.188;2022-07-12T01:42:40;14.48;;;4.95;;
37847;SDS011;23688;33.130;-117.188;2022-07-12T01:45:09;13.65;;;4.93;;
37847;SDS011;23688;33.130;-117.188;2022-07-12T01:47:36;10.30;;;5.32;;
37847;SDS011;23688;33.130;-117.188;2022-07-12T01:50:06;12.57;;;4.97;;
37847;SDS011;23688;33.130;-117.188;2022-07-12T01:52:34;13.60;;;5.60;;
37847;SDS011;23688;33.130;-117.188;2022-07-12T01:55:02;11.02;;;4.68;;
37847;SDS011;23688;33.130;-117.188;2022-07-12T01:57:28;9.50;;;4.93;;
37847;SDS011;23688;33.130;-117.188;2022-07-12T01:59:57;10.68;;;4.82;;
37847;SDS011;23688;33.130;-117.188;2022-07-12T02:02:26;12.45;;;4.75;;
37847;SDS011;23688;33.130;-117.188;2022-07-12T02:04:54;10.93;;;4.85;;
37847;SDS011;23688;33.130;-117.188;2022-07-12T02:07:21;12.43;;;4.82;;
37847;SDS011;23688;33.130;-117.188;2022-07-12T02:09:49;15.80;;;4.68;;
37847;SDS011;23688;33.130;-117.188;2022-07-12T02:12:16;12.35;;;4.68;;
37847;SDS011;23688;33.130;-117.188;2022-07-12T02:14:42;10.65;;;4.97;;
37847;SDS011;23688;33.130;-117.188;2022-07-12T02:17:08;11.18;;;4.82;;
37847;SDS011;23688;33.130;-117.188;2022-07-12T02:19:36;10.95;;;4.68;;
37847;SDS011;23688;33.130;-117.188;2022-07-12T02:22:02;11.82;;;5.30;;
37847;SDS011;23688;33.130;-117.188;2022-07-12T02:24:29;8.68;;;4.90;;
37847;SDS011;23688;33.130;-117.188;2022-07-12T02:26:55;10.25;;;5.32;;
37847;SDS011;23688;33.130;-117.188;2022-07-12T02:29:21;15.05;;;5.32;;
37847;SDS011;23688;33.130;-117.188;2022-07-12T02:31:47;13.23;;;5.30;;
37847;SDS011;23688;33.130;-117.188;2022-07-12T02:34:14;12.15;;;5.75;;
37847;SDS011;23688;33.130;-117.188;2022-07-12T02:36:40;18.00;;;6.13;;
37847;SDS011;23688;33.130;-117.188;2022-07-12T02:39:06;13.55;;;4.93;;
37847;SDS011;23688;33.130;-117.188;2022-07-12T02:41:33;11.90;;;5.55;;
37847;SDS011;23688;33.130;-117.188;2022-07-12T02:43:59;11.45;;;5.32;;
37847;SDS011;23688;33.130;-117.188;2022-07-12T02:46:25;13.32;;;6.15;;
37847;SDS011;23688;33.130;-117.188;2022-07-12T02:48:52;14.88;;;6.00;;
37847;SDS011;23688;33.130;-117.188;2022-07-12T02:51:18;17.40;;;5.63;;
37847;SDS011;23688;33.130;-117.188;2022-07-12T02:53:44;13.75;;;5.82;;
37847;SDS011;23688;33.130;-117.188;2022-07-12T02:56:11;15.60;;;6.25;;
37847;SDS011;23688;33.130;-117.188;2022-07-12T02:58:37;17.73;;;5.55;;
37847;SDS011;23688;33.130;-117.188;2022-07-12T03:01:04;12.80;;;5.30;;
37847;SDS011;23688;33.130;-117.188;2022-07-12T03:03:30;27.63;;;6.50;;
37847;SDS011;23688;33.130;-117.188;2022-07-12T03:05:56;21.30;;;6.20;;
37847;SDS011;23688;33.130;-117.188;2022-07-12T03:08:23;15.35;;;6.28;;
37847;SDS011;23688;33.130;-117.188;2022-07-12T03:10:50;14.32;;;5.63;;
37847;SDS011;23688;33.130;-117.188;2022-07-12T03:13:16;14.77;;;6.28;;
37847;SDS011;23688;33.130;-117.188;2022-07-12T03:15:42;14.90;;;5.72;;
37847;SDS011;23688;33.130;-117.188;2022-07-12T03:18:11;18.85;;;6.38;;
37847;SDS011;23688;33.130;-117.188;2022-07-12T03:20:38;17.35;;;6.30;;
37847;SDS011;23688;33.130;-117.188;2022-07-12T03:23:05;20.30;;;6.65;;
37847;SDS011;23688;33.130;-117.188;2022-07-12T03:25:31;20.65;;;6.53;;
37847;SDS011;23688;33.130;-117.188;2022-07-12T03:27:57;20.13;;;7.43;;
37847;SDS011;23688;33.130;-117.188;2022-07-12T03:30:25;17.63;;;6.40;;
37847;SDS011;23688;33.130;-117.188;2022-07-12T03:32:52;17.63;;;6.15;;
37847;SDS011;23688;33.130;-117.188;2022-07-12T03:35:19;15.43;;;7.07;;
37847;SDS011;23688;33.130;-117.188;2022-07-12T03:37:46;18.60;;;7.15;;
37847;SDS011;23688;33.130;-117.188;2022-07-12T03:40:14;17.40;;;7.50;;
37847;SDS011;23688;33.130;-117.188;2022-07-12T03:42:41;25.48;;;7.32;;
37847;SDS011;23688;33.130;-117.188;2022-07-12T03:45:09;14.48;;;7.18;;
37847;SDS011;23688;33.130;-117.188;2022-07-12T03:47:36;14.13;;;7.05;;
37847;SDS011;23688;33.130;-117.188;2022-07-12T03:50:13;13.57;;;7.30;;
37847;SDS011;23688;33.130;-117.188;2022-07-12T03:52:40;17.35;;;7.95;;
37847;SDS011;23688;33.130;-117.188;2022-07-12T03:55:07;15.15;;;7.65;;
37847;SDS011;23688;33.130;-117.188;2022-07-12T03:57:37;19.00;;;7.70;;
37847;SDS011;23688;33.130;-117.188;2022-07-12T04:00:05;15.87;;;7.67;;
37847;SDS011;23688;33.130;-117.188;2022-07-12T04:02:37;15.35;;;6.93;;
37847;SDS011;23688;33.130;-117.188;2022-07-12T04:05:05;20.80;;;7.30;;
37847;SDS011;23688;33.130;-117.188;2022-07-12T04:07:32;27.60;;;8.68;;
37847;SDS011;23688;33.130;-117.188;2022-07-12T04:09:59;20.80;;;7.55;;
37847;SDS011;23688;33.130;-117.188;2022-07-12T04:12:25;18.42;;;7.25;;
37847;SDS011;23688;33.130;-117.188;2022-07-12T04:14:51;19.10;;;8.02;;
37847;SDS011;23688;33.130;-117.188;2022-07-12T04:17:18;17.50;;;8.00;;
37847;SDS011;23688;33.130;-117.188;2022-07-12T04:19:44;17.98;;;8.27;;
37847;SDS011;23688;33.130;-117.188;2022-07-12T04:22:10;20.40;;;8.07;;
37847;SDS011;23688;33.130;-117.188;2022-07-12T04:24:37;16.50;;;6.55;;
37847;SDS011;23688;33.130;-117.188;2022-07-12T04:27:03;24.00;;;7.75;;
37847;SDS011;23688;33.130;-117.188;2022-07-12T04:29:29;17.60;;;7.95;;
37847;SDS011;23688;33.130;-117.188;2022-07-12T04:31:56;19.95;;;7.25;;
37847;SDS011;23688;33.130;-117.188;2022-07-12T04:34:22;14.38;;;6.55;;
37847;SDS011;23688;33.130;-117.188;2022-07-12T04:36:48;15.90;;;7.40;;
37847;SDS011;23688;33.130;-117.188;2022-07-12T04:39:15;19.60;;;8.05;;
37847;SDS011;23688;33.130;-117.188;2022-07-12T04:41:41;15.95;;;7.85;;
37847;SDS011;23688;33.130;-117.188;2022-07-12T04:44:07;14.77;;;7.82;;
37847;SDS011;23688;33.130;-117.188;2022-07-12T04:46:34;13.43;;;7.55;;
37847;SDS011;23688;33.130;-117.188;2022-07-12T04:49:00;18.60;;;7.60;;
37847;SDS011;23688;33.130;-117.188;2022-07-12T04:51:26;16.77;;;8.23;;
37847;SDS011;23688;33.130;-117.188;2022-07-12T04:53:53;21.27;;;8.80;;
37847;SDS011;23688;33.130;-117.188;2022-07-12T04:56:20;15.57;;;8.40;;
37847;SDS011;23688;33.130;-117.188;2022-07-12T04:58:46;14.65;;;8.52;;
37847;SDS011;23688;33.130;-117.188;2022-07-12T05:01:12;19.80;;;7.82;;
37847;SDS011;23688;33.130;-117.188;2022-07-12T05:03:39;13.90;;;6.95;;
37847;SDS011;23688;33.130;-117.188;2022-07-12T05:06:05;23.40;;;8.95;;
37847;SDS011;23688;33.130;-117.188;2022-07-12T05:08:31;17.25;;;7.90;;
37847;SDS011;23688;33.130;-117.188;2022-07-12T05:10:57;21.13;;;8.50;;
37847;SDS011;23688;33.130;-117.188;2022-07-12T05:13:24;27.27;;;8.32;;
37847;SDS011;23688;33.130;-117.188;2022-07-12T05:15:50;19.88;;;8.35;;
37847;SDS011;23688;33.130;-117.188;2022-07-12T05:18:17;15.18;;;7.93;;
37847;SDS011;23688;33.130;-117.188;2022-07-12T05:20:43;20.10;;;7.88;;
37847;SDS011;23688;33.130;-117.188;2022-07-12T05:23:10;16.50;;;8.55;;
37847;SDS011;23688;33.130;-117.188;2022-07-12T05:25:36;16.30;;;7.53;;
37847;SDS011;23688;33.130;-117.188;2022-07-12T05:28:02;19.80;;;8.77;;
37847;SDS011;23688;33.130;-117.188;2022-07-12T05:30:29;16.58;;;8.63;;
37847;SDS011;23688;33.130;-117.188;2022-07-12T05:32:55;16.42;;;8.65;;
37847;SDS011;23688;33.130;-117.188;2022-07-12T05:35:21;20.15;;;8.68;;
37847;SDS011;23688;33.130;-117.188;2022-07-12T05:37:48;17.33;;;8.27;;
37847;SDS011;23688;33.130;-117.188;2022-07-12T05:40:14;22.98;;;8.70;;
37847;SDS011;23688;33.130;-117.188;2022-07-12T05:42:41;23.10;;;9.07;;
37847;SDS011;23688;33.130;-117.188;2022-07-12T05:45:07;21.60;;;8.15;;
37847;SDS011;23688;33.130;-117.188;2022-07-12T05:47:34;14.50;;;8.32;;
37847;SDS011;23688;33.130;-117.188;2022-07-12T05:50:00;18.23;;;8.40;;
37847;SDS011;23688;33.130;-117.188;2022-07-12T05:52:26;16.15;;;9.32;;
37847;SDS011;23688;33.130;-117.188;2022-07-12T05:55:11;16.98;;;8.60;;
37847;SDS011;23688;33.130;-117.188;2022-07-12T05:57:37;21.02;;;9.38;;
37847;SDS011;23688;33.130;-117.188;2022-07-12T06:00:04;18.10;;;8.93;;
37847;SDS011;23688;33.130;-117.188;2022-07-12T06:02:31;15.20;;;8.02;;
37847;SDS011;23688;33.130;-117.188;2022-07-12T06:04:58;18.95;;;7.53;;
37847;SDS011;23688;33.130;-117.188;2022-07-12T06:07:24;16.80;;;8.65;;
37847;SDS011;23688;33.130;-117.188;2022-07-12T06:09:50;15.50;;;7.57;;
37847;SDS011;23688;33.130;-117.188;2022-07-12T06:12:16;16.83;;;8.57;;
37847;SDS011;23688;33.130;-117.188;2022-07-12T06:14:43;21.05;;;8.20;;
37847;SDS011;23688;33.130;-117.188;2022-07-12T06:17:09;22.13;;;8.40;;
37847;SDS011;23688;33.130;-117.188;2022-07-12T06:19:35;22.05;;;8.10;;
37847;SDS011;23688;33.130;-117.188;2022-07-12T06:22:01;19.20;;;8.93;;
37847;SDS011;23688;33.130;-117.188;2022-07-12T06:24:28;21.95;;;8.23;;
37847;SDS011;23688;33.130;-117.188;2022-07-12T06:26:54;24.63;;;9.38;;
37847;SDS011;23688;33.130;-117.188;2022-07-12T06:29:20;19.15;;;8.55;;
37847;SDS011;23688;33.130;-117.188;2022-07-12T06:31:47;19.02;;;8.90;;
37847;SDS011;23688;33.130;-117.188;2022-07-12T06:34:13;21.65;;;9.20;;
37847;SDS011;23688;33.130;-117.188;2022-07-12T06:36:39;20.10;;;9.30;;
37847;SDS011;23688;33.130;-117.188;2022-07-12T06:39:09;22.27;;;11.00;;
37847;SDS011;23688;33.130;-117.188;2022-07-12T06:41:35;24.52;;;10.50;;
37847;SDS011;23688;33.130;-117.188;2022-07-12T06:44:01;16.42;;;9.50;;
37847;SDS011;23688;33.130;-117.188;2022-07-12T06:46:27;23.77;;;9.88;;
37847;SDS011;23688;33.130;-117.188;2022-07-12T06:48:54;20.15;;;10.38;;
37847;SDS011;23688;33.130;-117.188;2022-07-12T06:51:20;24.58;;;9.52;;
37847;SDS011;23688;33.130;-117.188;2022-07-12T06:53:46;17.83;;;8.93;;
37847;SDS011;23688;33.130;-117.188;2022-07-12T06:56:13;16.40;;;8.98;;
37847;SDS011;23688;33.130;-117.188;2022-07-12T06:58:40;16.05;;;8.35;;
37847;SDS011;23688;33.130;-117.188;2022-07-12T07:01:06;23.58;;;8.77;;
37847;SDS011;23688;33.130;-117.188;2022-07-12T07:03:33;17.17;;;8.82;;
37847;SDS011;23688;33.130;-117.188;2022-07-12T07:05:59;19.52;;;8.80;;
37847;SDS011;23688;33.130;-117.188;2022-07-12T07:08:26;16.02;;;9.00;;
37847;SDS011;23688;33.130;-117.188;2022-07-12T07:10:52;19.08;;;8.70;;
37847;SDS011;23688;33.130;-117.188;2022-07-12T07:13:18;17.63;;;8.55;;
37847;SDS011;23688;33.130;-117.188;2022-07-12T07:15:45;28.13;;;10.15;;
37847;SDS011;23688;33.130;-117.188;2022-07-12T07:18:11;19.70;;;8.65;;
37847;SDS011;23688;33.130;-117.188;2022-07-12T07:20:37;18.95;;;8.88;;
37847;SDS011;23688;33.130;-117.188;2022-07-12T07:23:06;16.02;;;7.93;;
37847;SDS011;23688;33.130;-117.188;2022-07-12T07:25:32;21.60;;;8.98;;
37847;SDS011;23688;33.130;-117.188;2022-07-12T07:27:58;20.92;;;8.55;;
37847;SDS011;23688;33.130;-117.188;2022-07-12T07:30:25;22.75;;;9.25;;
37847;SDS011;23688;33.130;-117.188;2022-07-12T07:33:09;17.42;;;8.30;;
37847;SDS011;23688;33.130;-117.188;2022-07-12T07:35:36;17.63;;;8.05;;
37847;SDS011;23688;33.130;-117.188;2022-07-12T07:38:04;19.27;;;8.55;;
37847;SDS011;23688;33.130;-117.188;2022-07-12T07:40:31;23.95;;;7.93;;
37847;SDS011;23688;33.130;-117.188;2022-07-12T07:42:57;20.58;;;8.70;;
37847;SDS011;23688;33.130;-117.188;2022-07-12T07:45:23;10.65;;;6.95;;
37847;SDS011;23688;33.130;-117.188;2022-07-12T07:47:49;18.63;;;8.13;;
37847;SDS011;23688;33.130;-117.188;2022-07-12T07:50:16;21.48;;;7.82;;
37847;SDS011;23688;33.130;-117.188;2022-07-12T07:52:42;13.73;;;7.88;;
37847;SDS011;23688;33.130;-117.188;2022-07-12T07:55:09;18.65;;;9.15;;
37847;SDS011;23688;33.130;-117.188;2022-07-12T07:57:36;18.50;;;8.23;;
37847;SDS011;23688;33.130;-117.188;2022-07-12T08:00:03;15.60;;;7.45;;
37847;SDS011;23688;33.130;-117.188;2022-07-12T08:02:29;12.38;;;7.60;;
37847;SDS011;23688;33.130;-117.188;2022-07-12T08:04:56;16.17;;;7.82;;
37847;SDS011;23688;33.130;-117.188;2022-07-12T08:07:22;14.70;;;8.07;;
37847;SDS011;23688;33.130;-117.188;2022-07-12T08:09:48;15.65;;;7.88;;
37847;SDS011;23688;33.130;-117.188;2022-07-12T08:12:14;18.33;;;8.10;;
37847;SDS011;23688;33.130;-117.188;2022-07-12T08:14:41;20.88;;;8.90;;
37847;SDS011;23688;33.130;-117.188;2022-07-12T08:17:07;17.10;;;10.30;;
37847;SDS011;23688;33.130;-117.188;2022-07-12T08:19:33;24.38;;;9.52;;
37847;SDS011;23688;33.130;-117.188;2022-07-12T08:21:59;20.38;;;10.18;;
37847;SDS011;23688;33.130;-117.188;2022-07-12T08:24:26;19.45;;;9.57;;
37847;SDS011;23688;33.130;-117.188;2022-07-12T08:26:52;16.52;;;9.15;;
37847;SDS011;23688;33.130;-117.188;2022-07-12T08:29:18;19.50;;;9.00;;
37847;SDS011;23688;33.130;-117.188;2022-07-12T08:31:44;15.90;;;8.13;;
37847;SDS011;23688;33.130;-117.188;2022-07-12T08:34:11;21.75;;;7.85;;
37847;SDS011;23688;33.130;-117.188;2022-07-12T08:36:37;16.50;;;9.13;;
37847;SDS011;23688;33.130;-117.188;2022-07-12T08:39:04;20.08;;;9.02;;
37847;SDS011;23688;33.130;-117.188;2022-07-12T08:41:30;17.17;;;9.68;;
37847;SDS011;23688;33.130;-117.188;2022-07-12T08:43:57;14.80;;;8.15;;
37847;SDS011;23688;33.130;-117.188;2022-07-12T08:46:23;17.23;;;8.40;;
37847;SDS011;23688;33.130;-117.188;2022-07-12T08:48:50;17.85;;;9.15;;
37847;SDS011;23688;33.130;-117.188;2022-07-12T08:51:19;25.73;;;10.18;;
37847;SDS011;23688;33.130;-117.188;2022-07-12T08:53:47;21.08;;;10.02;;
37847;SDS011;23688;33.130;-117.188;2022-07-12T08:56:36;19.50;;;9.68;;
37847;SDS011;23688;33.130;-117.188;2022-07-12T08:59:16;21.50;;;9.45;;
37847;SDS011;23688;33.130;-117.188;2022-07-12T09:01:44;18.20;;;9.25;;
37847;SDS011;23688;33.130;-117.188;2022-07-12T09:04:12;22.92;;;10.32;;
37847;SDS011;23688;33.130;-117.188;2022-07-12T09:06:39;21.33;;;9.80;;
37847;SDS011;23688;33.130;-117.188;2022-07-12T09:09:05;16.05;;;8.77;;
37847;SDS011;23688;33.130;-117.188;2022-07-12T09:11:37;20.40;;;10.23;;
37847;SDS011;23688;33.130;-117.188;2022-07-12T09:14:05;15.02;;;9.68;;
37847;SDS011;23688;33.130;-117.188;2022-07-12T09:16:32;12.95;;;8.05;;
37847;SDS011;23688;33.130;-117.188;2022-07-12T09:19:31;19.77;;;9.15;;
37847;SDS011;23688;33.130;-117.188;2022-07-12T09:21:51;16.85;;;9.02;;
37847;SDS011;23688;33.130;-117.188;2022-07-12T09:24:28;18.85;;;9.80;;
37847;SDS011;23688;33.130;-117.188;2022-07-12T09:27:02;13.60;;;8.38;;
37847;SDS011;23688;33.130;-117.188;2022-07-12T09:29:30;12.95;;;8.45;;
37847;SDS011;23688;33.130;-117.188;2022-07-12T09:31:58;16.13;;;8.60;;
37847;SDS011;23688;33.130;-117.188;2022-07-12T09:34:59;21.77;;;9.25;;
37847;SDS011;23688;33.130;-117.188;2022-07-12T09:37:43;17.20;;;9.30;;
37847;SDS011;23688;33.130;-117.188;2022-07-12T09:40:11;15.43;;;8.75;;
37847;SDS011;23688;33.130;-117.188;2022-07-12T09:42:41;14.75;;;8.65;;
37847;SDS011;23688;33.130;-117.188;2022-07-12T09:45:08;17.95;;;9.95;;
37847;SDS011;23688;33.130;-117.188;2022-07-12T09:47:36;15.27;;;9.77;;
37847;SDS011;23688;33.130;-117.188;2022-07-12T09:50:03;13.90;;;9.52;;
37847;SDS011;23688;33.130;-117.188;2022-07-12T09:52:32;21.08;;;9.80;;
37847;SDS011;23688;33.130;-117.188;2022-07-12T09:55:05;14.15;;;9.30;;
37847;SDS011;23688;33.130;-117.188;2022-07-12T09:57:35;19.20;;;10.85;;
37847;SDS011;23688;33.130;-117.188;2022-07-12T10:00:09;17.52;;;10.38;;
37847;SDS011;23688;33.130;-117.188;2022-07-12T10:02:37;19.80;;;10.98;;
37847;SDS011;23688;33.130;-117.188;2022-07-12T10:05:05;17.65;;;10.02;;
37847;SDS011;23688;33.130;-117.188;2022-07-12T10:07:33;19.27;;;10.13;;
37847;SDS011;23688;33.130;-117.188;2022-07-12T10:10:02;14.18;;;9.25;;
37847;SDS011;23688;33.130;-117.188;2022-07-12T10:12:29;23.63;;;12.07;;
37847;SDS011;23688;33.130;-117.188;2022-07-12T10:15:05;22.02;;;11.05;;
37847;SDS011;23688;33.130;-117.188;2022-07-12T10:17:39;16.83;;;10.75;;
37847;SDS011;23688;33.130;-117.188;2022-07-12T10:20:13;19.33;;;11.15;;
37847;SDS011;23688;33.130;-117.188;2022-07-12T10:22:47;18.48;;;10.80;;
37847;SDS011;23688;33.130;-117.188;2022-07-12T10:25:47;17.85;;;10.40;;
37847;SDS011;23688;33.130;-117.188;2022-07-12T10:28:06;19.35;;;12.48;;
37847;SDS011;23688;33.130;-117.188;2022-07-12T10:30:41;22.55;;;13.23;;
37847;SDS011;23688;33.130;-117.188;2022-07-12T10:33:22;20.10;;;12.02;;
37847;SDS011;23688;33.130;-117.188;2022-07-12T10:35:59;24.73;;;13.85;;
37847;SDS011;23688;33.130;-117.188;2022-07-12T10:38:27;19.08;;;12.32;;
37847;SDS011;23688;33.130;-117.188;2022-07-12T10:40:55;24.15;;;12.48;;
37847;SDS011;23688;33.130;-117.188;2022-07-12T10:43:25;21.98;;;11.93;;
37847;SDS011;23688;33.130;-117.188;2022-07-12T10:46:14;23.08;;;12.27;;
37847;SDS011;23688;33.130;-117.188;2022-07-12T10:48:46;20.05;;;11.15;;
37847;SDS011;23688;33.130;-117.188;2022-07-12T10:51:16;21.63;;;12.35;;
37847;SDS011;23688;33.130;-117.188;2022-07-12T10:53:45;18.65;;;11.32;;
37847;SDS011;23688;33.130;-117.188;2022-07-12T10:56:18;24.88;;;13.27;;
37847;SDS011;23688;33.130;-117.188;2022-07-12T11:01:22;20.30;;;11.30;;
37847;SDS011;23688;33.130;-117.188;2022-07-12T11:03:54;23.40;;;10.82;;
37847;SDS011;23688;33.130;-117.188;2022-07-12T11:06:25;22.02;;;11.55;;
37847;SDS011;23688;33.130;-117.188;2022-07-12T11:08:55;17.08;;;11.20;;
37847;SDS011;23688;33.130;-117.188;2022-07-12T11:11:25;23.83;;;13.40;;
37847;SDS011;23688;33.130;-117.188;2022-07-12T11:13:56;23.08;;;12.32;;
37847;SDS011;23688;33.130;-117.188;2022-07-12T11:16:24;17.60;;;10.30;;
37847;SDS011;23688;33.130;-117.188;2022-07-12T11:18:51;18.15;;;11.35;;
37847;SDS011;23688;33.130;-117.188;2022-07-12T11:21:19;18.63;;;11.85;;
37847;SDS011;23688;33.130;-117.188;2022-07-12T11:23:46;18.63;;;12.10;;
37847;SDS011;23688;33.130;-117.188;2022-07-12T11:26:15;20.80;;;11.82;;
37847;SDS011;23688;33.130;-117.188;2022-07-12T11:28:42;18.65;;;12.13;;
37847;SDS011;23688;33.130;-117.188;2022-07-12T11:31:13;25.02;;;11.90;;
37847;SDS011;23688;33.130;-117.188;2022-07-12T11:33:47;16.35;;;11.38;;
37847;SDS011;23688;33.130;-117.188;2022-07-12T11:36:14;22.05;;;13.13;;
37847;SDS011;23688;33.130;-117.188;2022-07-12T11:38:42;24.90;;;12.98;;
37847;SDS011;23688;33.130;-117.188;2022-07-12T11:41:11;26.67;;;11.95;;
37847;SDS011;23688;33.130;-117.188;2022-07-12T11:43:38;21.80;;;12.60;;
37847;SDS011;23688;33.130;-117.188;2022-07-12T11:46:06;26.55;;;12.35;;
37847;SDS011;23688;33.130;-117.188;2022-07-12T11:48:34;18.88;;;11.27;;
37847;SDS011;23688;33.130;-117.188;2022-07-12T11:51:03;19.67;;;11.90;;
37847;SDS011;23688;33.130;-117.188;2022-07-12T11:53:34;19.38;;;11.85;;
37847;SDS011;23688;33.130;-117.188;2022-07-12T11:56:02;24.48;;;12.63;;
37847;SDS011;23688;33.130;-117.188;2022-07-12T12:01:03;24.73;;;12.93;;
37847;SDS011;23688;33.130;-117.188;2022-07-12T12:03:30;21.00;;;11.48;;
37847;SDS011;23688;33.130;-117.188;2022-07-12T12:05:57;25.50;;;14.18;;
37847;SDS011;23688;33.130;-117.188;2022-07-12T12:08:24;23.92;;;13.55;;
37847;SDS011;23688;33.130;-117.188;2022-07-12T12:10:55;22.98;;;13.10;;
37847;SDS011;23688;33.130;-117.188;2022-07-12T12:13:23;36.40;;;14.55;;
37847;SDS011;23688;33.130;-117.188;2022-07-12T12:15:52;24.02;;;13.02;;
37847;SDS011;23688;33.130;-117.188;2022-07-12T12:18:35;19.03;;;12.63;;
37847;SDS011;23688;33.130;-117.188;2022-07-12T12:21:11;30.88;;;13.68;;
37847;SDS011;23688;33.130;-117.188;2022-07-12T12:23:39;25.60;;;13.60;;
37847;SDS011;23688;33.130;-117.188;2022-07-12T12:31:10;28.17;;;14.55;;
37847;SDS011;23688;33.130;-117.188;2022-07-12T12:33:42;23.03;;;13.47;;
37847;SDS011;23688;33.130;-117.188;2022-07-12T12:36:13;29.42;;;13.68;;
37847;SDS011;23688;33.130;-117.188;2022-07-12T12:38:48;27.38;;;13.35;;
37847;SDS011;23688;33.130;-117.188;2022-07-12T12:41:19;26.40;;;12.65;;
37847;SDS011;23688;33.130;-117.188;2022-07-12T12:44:11;23.45;;;12.52;;
37847;SDS011;23688;33.130;-117.188;2022-07-12T12:46:57;25.63;;;13.45;;
37847;SDS011;23688;33.130;-117.188;2022-07-12T12:49:51;28.92;;;12.35;;
37847;SDS011;23688;33.130;-117.188;2022-07-12T12:52:18;20.88;;;11.88;;
37847;SDS011;23688;33.130;-117.188;2022-07-12T12:54:45;24.63;;;12.73;;
37847;SDS011;23688;33.130;-117.188;2022-07-12T12:57:12;21.65;;;12.43;;
37847;SDS011;23688;33.130;-117.188;2022-07-12T12:59:38;26.77;;;14.05;;
37847;SDS011;23688;33.130;-117.188;2022-07-12T13:02:05;24.58;;;13.93;;
37847;SDS011;23688;33.130;-117.188;2022-07-12T13:04:33;31.33;;;14.13;;
37847;SDS011;23688;33.130;-117.188;2022-07-12T13:07:01;27.93;;;13.83;;
37847;SDS011;23688;33.130;-117.188;2022-07-12T13:09:28;23.08;;;12.35;;
37847;SDS011;23688;33.130;-117.188;2022-07-12T13:11:55;29.90;;;13.98;;
37847;SDS011;23688;33.130;-117.188;2022-07-12T13:14:22;25.67;;;14.10;;
37847;SDS011;23688;33.130;-117.188;2022-07-12T13:16:48;28.23;;;14.20;;
37847;SDS011;23688;33.130;-117.188;2022-07-12T13:19:14;28.77;;;13.80;;
37847;SDS011;23688;33.130;-117.188;2022-07-12T13:21:41;32.42;;;14.73;;
37847;SDS011;23688;33.130;-117.188;2022-07-12T13:24:07;24.63;;;11.55;;
37847;SDS011;23688;33.130;-117.188;2022-07-12T13:26:34;32.13;;;13.48;;
37847;SDS011;23688;33.130;-117.188;2022-07-12T13:29:02;28.60;;;14.48;;
37847;SDS011;23688;33.130;-117.188;2022-07-12T13:31:29;22.90;;;13.07;;
37847;SDS011;23688;33.130;-117.188;2022-07-12T13:33:55;25.08;;;12.18;;
37847;SDS011;23688;33.130;-117.188;2022-07-12T13:36:21;30.05;;;13.88;;
37847;SDS011;23688;33.130;-117.188;2022-07-12T13:38:48;26.38;;;13.38;;
37847;SDS011;23688;33.130;-117.188;2022-07-12T13:41:15;29.15;;;13.35;;
37847;SDS011;23688;33.130;-117.188;2022-07-12T13:43:41;22.38;;;13.15;;
37847;SDS011;23688;33.130;-117.188;2022-07-12T13:46:07;35.60;;;13.95;;
37847;SDS011;23688;33.130;-117.188;2022-07-12T13:48:33;29.67;;;14.30;;
37847;SDS011;23688;33.130;-117.188;2022-07-12T13:51:00;22.92;;;14.27;;
37847;SDS011;23688;33.130;-117.188;2022-07-12T13:53:26;34.47;;;15.23;;
37847;SDS011;23688;33.130;-117.188;2022-07-12T13:55:52;26.02;;;13.25;;
37847;SDS011;23688;33.130;-117.188;2022-07-12T13:58:19;25.80;;;15.02;;
37847;SDS011;23688;33.130;-117.188;2022-07-12T14:00:45;30.13;;;13.80;;
37847;SDS011;23688;33.130;-117.188;2022-07-12T14:03:12;27.83;;;14.43;;
37847;SDS011;23688;33.130;-117.188;2022-07-12T14:05:38;29.60;;;15.18;;
37847;SDS011;23688;33.130;-117.188;2022-07-12T14:08:04;26.52;;;13.95;;
37847;SDS011;23688;33.130;-117.188;2022-07-12T14:10:30;28.55;;;14.50;;
37847;SDS011;23688;33.130;-117.188;2022-07-12T14:12:59;27.45;;;14.10;;